Погода Щебрана 2 недели

Подляское воеводство, Польша

17 - 30 июля
  • 17июля
    Сегодня
    +17°
    +29°
    Облачно с прояснениями
    ВремяПогодаТемператураВлажностьДавлениеВетер, м/сВероятность осадков
    02:00Пасмурно, дожди с грозами+20°C93 %749 мм2.0 м/с83 %
    05:00Небольшая облачность+20°C95 %749 мм2.1 м/с33 %
    08:00Облачно с прояснениями+23°C78 %751 мм4.5 м/с4 %
    11:00Небольшая облачность+27°C48 %752 мм4.5 м/с3 %
    14:00Облачно с прояснениями+29°C40 %752 мм4.5 м/с2 %
    17:00Небольшая облачность+28°C39 %751 мм4.3 м/с2 %
    20:00Небольшая облачность+25°C48 %752 мм3.3 м/с2 %
    23:00Облачно с прояснениями+20°C61 %753 мм2.3 м/с1 %
  • 18июля
    Четверг
    +13°
    +26°
    Небольшая облачность и лёгкий дождик
    ВремяПогодаТемператураВлажностьДавлениеВетер, м/сВероятность осадков
    02:00Практически безоблачно+17°C90 %753 мм1.8 м/с2 %
    05:00Ясно и безоблачно+17°C96 %754 мм1.0 м/с2 %
    08:00Ясно и безоблачно+21°C71 %754 мм1.1 м/с2 %
    11:00Ясно и безоблачно+24°C51 %754 мм3.8 м/с21 %
    14:00Небольшая облачность и лёгкий дождик+25°C43 %754 мм5.3 м/с30 %
    17:00Практически безоблачно+25°C44 %754 мм5.9 м/с10 %
    20:00Ясно и безоблачно+23°C56 %754 мм4.6 м/с2 %
    23:00Ясно и безоблачно+17°C70 %755 мм3.4 м/с2 %
  • 19июля
    Пятница
    +11°
    +25°
    Ясно и безоблачно
    ВремяПогодаТемператураВлажностьДавлениеВетер, м/сВероятность осадков
    02:00Облачно с прояснениями+15°C84 %755 мм2.9 м/с2 %
    05:00Практически безоблачно+14°C94 %755 мм2.4 м/с2 %
    08:00Ясно и безоблачно+18°C72 %755 мм3.1 м/с2 %
    11:00Ясно и безоблачно+22°C54 %754 мм4.1 м/с2 %
    14:00Ясно и безоблачно+24°C44 %754 мм4.3 м/с2 %
    17:00Ясно и безоблачно+24°C42 %753 мм4.5 м/с2 %
    20:00Ясно и безоблачно+22°C51 %752 мм4.4 м/с2 %
    23:00Ясно и безоблачно+16°C68 %752 мм2.3 м/с2 %
  • 20июля
    Суббота
    +14°
    +26°
    Ясно и безоблачно
    ВремяПогодаТемператураВлажностьДавлениеВетер, м/сВероятность осадков
    02:00Ясно и безоблачно+13°C91 %752 мм1.6 м/с2 %
    05:00Небольшая облачность+12°C97 %751 мм1.4 м/с2 %
    08:00Ясно и безоблачно+17°C74 %751 мм1.9 м/с2 %
    11:00Ясно и безоблачно+22°C51 %750 мм1.6 м/с4 %
    14:00Ясно и безоблачно+25°C40 %749 мм1.7 м/с9 %
    17:00Небольшая облачность+25°C36 %748 мм2.1 м/с10 %
    20:00Практически безоблачно+23°C49 %748 мм3.8 м/с8 %
    23:00Практически безоблачно+18°C67 %748 мм2.3 м/с2 %
  • 21июля
    Воскресенье
    +14°
    +28°
    Ясно и безоблачно
    ВремяПогодаТемператураВлажностьДавлениеВетер, м/сВероятность осадков
    02:00Ясно и безоблачно+15°C82 %747 мм1.9 м/с2 %
    05:00Ясно и безоблачно+13°C94 %747 мм1.4 м/с2 %
    08:00Ясно и безоблачно+20°C67 %747 мм1.0 м/с2 %
    11:00Ясно и безоблачно+24°C42 %747 мм1.8 м/с4 %
    14:00Ясно и безоблачно+26°C35 %746 мм2.3 м/с11 %
    17:00Ясно и безоблачно+26°C31 %745 мм2.3 м/с10 %
    20:00Ясно и безоблачно+23°C49 %745 мм1.7 м/с2 %
    23:00Ясно и безоблачно+17°C63 %745 мм2.3 м/с2 %
Мы используем cookies
Соглашаюсь